Time;durP1;ratioP1;P1;durP2;ratioP2;P2;SDS_P1;SDS_P2;PMS_P1;PMS_P2;Temp;Humidity;BMP_temperature;BMP_pressure;BME280_temperature;BME280_humidity;BME280_pressure;Samples;Min_cycle;Max_cycle;Signal;HPM_P1;HPM_P2
2020/12/28 00:01:55;;;;;;;0.98;0.68;;;4.00;96.10;;;8.16;77.90;97690.13;4988940;28;97671;-73
2020/12/28 00:04:23;;;;;;;0.15;0.15;;;4.00;96.10;;;8.19;77.53;97686.00;5002167;28;97734;-73
2020/12/28 00:06:50;;;;;;;0.52;0.40;;;4.00;96.10;;;8.19;77.40;97694.00;4996952;28;96986;-73
2020/12/28 00:09:18;;;;;;;0.30;0.30;;;4.00;96.10;;;8.05;78.10;97699.84;4985034;28;96864;-73
2020/12/28 00:11:47;;;;;;;0.40;0.40;;;4.10;96.10;;;8.14;77.87;97691.63;4989640;28;97654;-73
2020/12/28 00:14:15;;;;;;;0.75;0.75;;;4.00;96.10;;;8.15;78.11;97693.94;4991768;28;98055;-73
2020/12/28 00:16:43;;;;;;;0.70;0.55;;;4.10;96.10;;;8.12;77.74;97700.00;4995755;28;97320;-73
2020/12/28 00:19:12;;;;;;;0.95;0.65;;;4.10;96.10;;;8.12;78.17;97691.22;5006998;28;97397;-73
2020/12/28 00:21:40;;;;;;;0.32;0.32;;;4.10;96.10;;;8.16;78.13;97686.69;4980629;28;97204;-73
2020/12/28 00:24:09;;;;;;;2.05;0.68;;;4.10;96.10;;;8.17;77.69;97683.72;4978671;28;97595;-73
2020/12/28 00:26:37;;;;;;;0.50;0.50;;;4.10;96.10;;;8.15;78.08;97685.94;4982076;28;96758;-73
2020/12/28 00:29:09;;;;;;;1.15;1.08;;;4.10;96.10;;;8.12;78.88;97686.66;4992081;28;96695;-73
2020/12/28 00:31:37;;;;;;;1.77;0.90;;;4.10;96.10;;;8.20;77.99;97685.66;4992429;28;96987;-74
2020/12/28 00:34:06;;;;;;;0.25;0.25;;;4.20;96.20;;;8.24;78.38;97693.69;4992688;28;97648;-73
2020/12/28 00:36:34;;;;;;;0.77;0.57;;;4.10;96.10;;;8.27;77.57;97693.75;4984464;28;97230;-73
2020/12/28 00:39:06;;;;;;;3.38;1.88;;;4.10;96.10;;;8.28;77.98;97697.19;4994595;28;96778;-73
2020/12/28 00:41:34;;;;;;;0.70;0.70;;;4.20;96.10;;;8.30;77.53;97700.28;5001310;28;97639;-73
2020/12/28 00:44:05;;;;;;;0.73;0.47;;;4.10;96.10;;;8.32;77.54;97706.78;4986061;28;97459;-73
2020/12/28 00:46:34;;;;;;;1.10;0.98;;;4.10;96.10;;;8.32;77.82;97714.03;5001260;28;96641;-73
2020/12/28 00:49:04;;;;;;;0.20;0.20;;;4.10;96.10;;;8.33;77.34;97712.88;4987921;28;96921;-73
2020/12/28 00:51:32;;;;;;;0.40;0.40;;;4.20;96.10;;;8.40;77.12;97712.97;4991311;28;97288;-73
2020/12/28 00:54:04;;;;;;;0.47;0.40;;;4.20;96.20;;;8.40;77.31;97713.72;4975072;28;627904;-73
2020/12/28 00:56:32;;;;;;;0.32;0.32;;;4.20;96.10;;;8.39;77.42;97719.44;5000636;28;97069;-73
2020/12/28 00:59:03;;;;;;;0.35;0.35;;;4.20;96.20;;;8.36;77.65;97720.16;4978648;28;96783;-73
2020/12/28 01:01:34;;;;;;;1.25;0.75;;;4.20;96.20;;;8.45;77.12;97718.78;5002362;28;97878;-73
2020/12/28 01:04:04;;;;;;;0.35;0.35;;;4.20;96.20;;;8.40;77.15;97721.75;5001190;28;97076;-73
2020/12/28 01:06:52;;;;;;;3.65;1.65;;;4.20;96.10;;;8.47;77.47;97716.53;4996647;28;96784;-73
2020/12/28 01:09:39;;;;;;;0.52;0.52;;;4.20;96.10;;;8.51;76.84;97722.69;5007520;28;96890;-73
2020/12/28 01:12:07;;;;;;;0.20;0.20;;;4.20;96.10;;;8.47;77.15;97718.41;4991845;28;97131;-73
2020/12/28 01:14:36;;;;;;;0.80;0.57;;;4.20;96.10;;;8.46;77.14;97711.53;4989474;28;99129;-73
2020/12/28 01:17:06;;;;;;;0.50;0.50;;;4.20;96.10;;;8.47;77.11;97708.53;4996754;28;97303;-73
2020/12/28 01:19:48;;;;;;;0.60;0.60;;;4.20;96.10;;;8.56;77.10;97708.25;4992002;28;97368;-73
2020/12/28 01:22:17;;;;;;;0.40;0.40;;;4.20;96.10;;;8.55;76.91;97715.47;4990423;28;97809;-73
2020/12/28 01:24:46;;;;;;;1.58;1.48;;;4.20;96.10;;;8.49;76.94;97718.81;4983852;28;96733;-73
2020/12/28 01:27:14;;;;;;;0.30;0.30;;;4.20;96.10;;;8.47;77.33;97721.06;4991604;28;97003;-73
2020/12/28 01:29:42;;;;;;;1.10;0.45;;;4.20;96.10;;;8.52;77.06;97724.22;4994326;28;97141;-73
2020/12/28 01:32:11;;;;;;;0.45;0.45;;;4.20;96.10;;;8.42;77.75;97719.50;4989362;28;98231;-73
2020/12/28 01:35:09;;;;;;;0.77;0.70;;;4.20;96.10;;;8.38;77.59;97721.34;4997032;28;96754;-73
2020/12/28 01:37:37;;;;;;;0.68;0.68;;;4.20;96.10;;;8.54;77.05;97724.63;4982934;28;96811;-73
2020/12/28 01:40:06;;;;;;;1.70;1.00;;;4.20;96.10;;;8.44;77.50;97730.59;5000898;28;97323;-73
2020/12/28 01:42:34;;;;;;;1.23;0.55;;;4.20;96.10;;;8.50;76.86;97731.81;4997940;28;96730;-73
2020/12/28 01:45:04;;;;;;;0.45;0.43;;;4.20;96.10;;;8.54;77.11;97732.63;5009766;28;96870;-71
2020/12/28 01:47:33;;;;;;;0.43;0.43;;;4.30;96.20;;;8.40;77.75;97729.00;4996694;28;96864;-72
2020/12/28 01:50:05;;;;;;;0.63;0.63;;;4.20;96.10;;;8.46;77.74;97730.22;4997178;28;97075;-72
2020/12/28 01:52:34;;;;;;;0.40;0.40;;;4.20;96.10;;;8.57;77.25;97721.22;4991561;28;97123;-72
2020/12/28 01:55:06;;;;;;;0.82;0.75;;;4.30;96.20;;;8.48;77.29;97720.72;4997390;28;97085;-72
2020/12/28 01:57:49;;;;;;;0.85;0.85;;;4.30;96.20;;;8.47;77.61;97721.84;4993709;28;96699;-72
2020/12/28 02:00:17;;;;;;;0.35;0.35;;;4.20;96.10;;;8.48;77.78;97715.41;5000280;28;97601;-72
2020/12/28 02:02:55;;;;;;;0.77;0.77;;;4.30;96.20;;;8.49;77.43;97719.59;4982878;28;97813;-72
2020/12/28 02:05:37;;;;;;;1.88;1.27;;;4.30;96.20;;;8.58;77.39;97717.44;4986391;28;97702;-72
2020/12/28 02:08:06;;;;;;;0.80;0.80;;;4.30;96.20;;;8.61;76.99;97716.69;4981029;28;96767;-72
2020/12/28 02:10:35;;;;;;;3.97;0.77;;;4.30;96.20;;;8.51;77.48;97721.88;5008364;28;97400;-72
2020/12/28 02:13:05;;;;;;;0.57;0.57;;;4.30;96.20;;;8.51;77.64;97722.69;5002876;28;97801;-72
2020/12/28 02:15:40;;;;;;;2.40;1.27;;;4.30;96.20;;;8.49;77.67;97726.81;4997535;28;97753;-72
2020/12/28 02:18:33;;;;;;;1.52;1.42;;;4.30;96.20;;;8.55;77.35;97717.38;5003110;28;97022;-72
2020/12/28 02:21:14;;;;;;;1.00;1.00;;;4.40;96.20;;;8.47;77.47;97711.19;4985311;28;96880;-72
2020/12/28 02:23:44;;;;;;;0.90;0.90;;;4.30;96.20;;;8.33;78.32;97710.22;4997773;28;97014;-72
2020/12/28 02:26:14;;;;;;;1.25;0.82;;;4.40;96.20;;;8.40;78.15;97712.97;5003737;28;96694;-72
2020/12/28 02:28:42;;;;;;;1.42;1.25;;;4.40;96.20;;;8.44;77.96;97719.13;4994202;28;97051;-72
2020/12/28 02:31:14;;;;;;;1.23;1.20;;;4.40;96.20;;;8.49;78.16;97714.25;5001514;28;96947;-72
2020/12/28 02:33:58;;;;;;;0.55;0.55;;;4.40;96.20;;;8.57;77.71;97713.22;4990445;28;97196;-72
2020/12/28 02:36:32;;;;;;;1.23;1.13;;;4.40;96.20;;;8.60;77.25;97712.50;4993449;28;97687;-72
2020/12/28 02:39:04;;;;;;;5.20;1.63;;;4.40;96.20;;;8.60;77.39;97720.50;4998701;28;97240;-72
2020/12/28 02:41:33;;;;;;;1.63;1.25;;;4.40;96.20;;;8.71;77.12;97720.66;5001836;28;96809;-72
2020/12/28 02:44:22;;;;;;;0.90;0.57;;;4.40;96.20;;;8.77;76.97;97719.97;4992433;28;97214;-72
2020/12/28 02:47:09;;;;;;;0.93;0.85;;;4.40;96.20;;;8.71;76.96;97715.31;4997099;28;96722;-72
2020/12/28 02:49:55;;;;;;;0.98;0.93;;;4.40;96.20;;;8.80;76.77;97718.47;4995873;28;97199;-72
2020/12/28 02:52:46;;;;;;;0.40;0.40;;;4.40;96.20;;;8.87;76.48;97713.22;4995422;28;96848;-72
2020/12/28 02:55:34;;;;;;;1.45;0.50;;;4.40;96.20;;;8.87;76.74;97714.00;4992125;28;97045;-72
2020/12/28 02:58:21;;;;;;;1.20;0.85;;;4.40;96.20;;;8.84;76.66;97717.38;4995273;28;97240;-72
2020/12/28 03:01:24;;;;;;;0.50;0.50;;;4.40;96.20;;;8.78;76.78;97721.50;4967455;28;97130;-72
2020/12/28 03:04:10;;;;;;;0.52;0.52;;;4.40;96.20;;;8.76;77.00;97728.34;4989213;28;97106;-72
2020/12/28 03:06:57;;;;;;;1.27;0.75;;;4.40;96.20;;;8.73;77.04;97727.16;5001451;28;98331;-72
2020/12/28 03:09:45;;;;;;;1.30;0.82;;;4.40;96.20;;;8.79;77.06;97732.94;4974061;28;96796;-72
2020/12/28 03:12:32;;;;;;;1.23;0.57;;;4.40;96.20;;;8.78;76.90;97740.19;4998687;28;96702;-72
2020/12/28 03:15:38;;;;;;;1.05;0.95;;;4.40;96.20;;;8.83;76.54;97742.53;5022939;28;96753;-72
2020/12/28 03:18:25;;;;;;;0.30;0.30;;;4.50;96.20;;;8.82;76.84;97743.69;5008255;28;97870;-72
2020/12/28 03:21:12;;;;;;;0.50;0.50;;;4.40;96.20;;;8.81;76.73;97742.13;4998070;28;96804;-72
2020/12/28 03:23:59;;;;;;;0.90;0.90;;;4.50;96.20;;;8.91;76.58;97738.06;4989461;28;96890;-73
2020/12/28 03:26:47;;;;;;;0.85;0.75;;;4.40;96.20;;;8.84;76.27;97733.41;4994143;28;97124;-72
2020/12/28 03:29:35;;;;;;;4.15;1.05;;;4.40;96.20;;;8.84;76.59;97733.41;4997823;28;96623;-72
2020/12/28 03:32:21;;;;;;;1.15;0.75;;;4.40;96.20;;;8.83;76.56;97737.22;4993314;28;96608;-72
2020/12/28 03:35:08;;;;;;;0.40;0.40;;;4.40;96.20;;;8.85;76.40;97734.94;4990928;28;96753;-74
2020/12/28 03:37:55;;;;;;;0.43;0.43;;;4.40;96.20;;;8.85;76.45;97739.50;4998754;28;96753;-72
2020/12/28 03:41:02;;;;;;;1.27;1.17;;;4.40;96.20;;;8.76;77.16;97739.78;4999260;28;96820;-72
2020/12/28 03:43:51;;;;;;;1.75;0.90;;;4.40;96.20;;;8.72;77.07;97743.53;4976138;28;97534;-72
2020/12/28 03:46:39;;;;;;;0.20;0.20;;;4.40;96.20;;;8.73;77.22;97740.50;4998501;28;96825;-72
2020/12/28 03:49:25;;;;;;;1.15;1.08;;;4.40;96.20;;;8.73;76.91;97745.84;4992340;28;97142;-72
2020/12/28 03:52:12;;;;;;;0.85;0.85;;;4.40;96.20;;;8.70;76.97;97735.88;5004978;28;97421;-72
2020/12/28 03:54:59;;;;;;;0.32;0.30;;;4.40;96.20;;;8.60;77.16;97741.84;4993852;28;98687;-73
2020/12/28 03:57:49;;;;;;;1.35;0.75;;;4.40;96.10;;;8.57;77.69;97742.56;4994931;28;96721;-72
2020/12/28 04:00:35;;;;;;;0.50;0.50;;;4.40;96.20;;;8.58;77.39;97738.03;4994357;28;96756;-72
2020/12/28 04:03:23;;;;;;;0.30;0.30;;;4.40;96.10;;;8.59;77.38;97748.31;5000900;28;96735;-73
2020/12/28 04:06:10;;;;;;;3.38;1.05;;;4.40;96.20;;;8.54;77.27;97748.63;4996170;28;97493;-72
2020/12/28 04:08:56;;;;;;;0.30;0.30;;;4.40;96.10;;;8.54;77.33;97758.53;4997523;28;96759;-72
2020/12/28 04:11:43;;;;;;;0.28;0.28;;;4.40;96.10;;;8.53;77.16;97755.09;4998856;28;96980;-72
2020/12/28 04:14:18;;;;;;;0.20;0.20;;;4.40;96.10;;;8.48;77.43;97760.75;4994890;28;98002;-73
2020/12/28 04:16:46;;;;;;;1.13;0.90;;;4.30;96.40;;;8.47;77.57;97761.09;5006202;28;97911;-72
2020/12/28 04:19:14;;;;;;;0.95;0.93;;;4.30;96.10;;;8.48;77.26;97766.09;4984815;28;96684;-72
2020/12/28 04:21:42;;;;;;;0.20;0.20;;;4.30;96.10;;;8.47;77.62;97764.53;5014935;28;96758;-72
2020/12/28 04:24:15;;;;;;;0.73;0.60;;;4.30;96.10;;;8.50;77.41;97758.50;5004640;28;96956;-72
2020/12/28 04:26:46;;;;;;;0.40;0.40;;;4.30;96.10;;;8.49;77.34;97764.16;4987328;28;96775;-72
2020/12/28 04:29:15;;;;;;;0.22;0.22;;;4.30;96.10;;;8.45;77.81;97771.34;5004849;28;96884;-72
2020/12/28 04:31:43;;;;;;;0.20;0.20;;;4.20;96.10;;;8.42;77.53;97764.06;4997352;28;97546;-72
2020/12/28 04:34:11;;;;;;;1.23;0.28;;;4.30;96.10;;;8.41;77.62;97763.31;4986823;28;98413;-72
2020/12/28 04:36:40;;;;;;;2.10;0.52;;;4.30;96.40;;;8.32;77.83;97764.69;4995328;28;96722;-72
2020/12/28 04:39:08;;;;;;;0.60;0.60;;;4.30;96.20;;;8.33;77.99;97764.31;4989258;28;96657;-72
2020/12/28 04:41:36;;;;;;;0.40;0.40;;;4.20;96.10;;;8.33;77.12;97767.00;5008278;28;96775;-72
2020/12/28 04:44:04;;;;;;;0.32;0.32;;;4.20;96.10;;;8.27;77.98;97770.34;4995912;28;97028;-72
2020/12/28 04:46:37;;;;;;;1.13;1.02;;;4.20;96.10;;;8.31;77.50;97776.50;4992831;28;97859;-72
2020/12/28 04:49:05;;;;;;;0.50;0.50;;;4.20;96.10;;;8.24;77.77;97771.81;4993781;28;97143;-72
2020/12/28 04:51:33;;;;;;;0.55;0.55;;;4.20;96.10;;;8.21;78.04;97771.75;4999436;28;97312;-73
2020/12/28 04:54:03;;;;;;;0.63;0.63;;;4.10;96.10;;;8.25;77.39;97768.03;4986807;28;96765;-72
2020/12/28 04:56:36;;;;;;;1.38;0.98;;;4.20;96.10;;;8.23;77.88;97770.28;4992006;28;97659;-72
2020/12/28 04:59:04;;;;;;;;;;;4.20;96.10;;;8.21;77.75;97772.53;4993529;28;97112;-72
2020/12/28 05:01:34;;;;;;;1.13;0.85;;;4.10;96.10;;;8.26;77.87;97777.56;4980719;28;96855;-72
2020/12/28 05:04:04;;;;;;;0.30;0.30;;;4.20;96.10;;;8.32;77.48;97778.03;4998801;28;98126;-72
2020/12/28 05:06:32;;;;;;;0.77;0.77;;;4.10;96.10;;;8.18;77.67;97783.91;4989934;28;96798;-73
2020/12/28 05:09:09;;;;;;;2.72;1.02;;;4.10;96.10;;;8.23;78.04;97786.28;4990202;28;96758;-73
2020/12/28 05:11:41;;;;;;;1.38;0.93;;;4.10;96.10;;;8.17;78.31;97786.91;4992077;28;97224;-73
2020/12/28 05:14:16;;;;;;;0.85;0.75;;;4.10;96.10;;;8.22;77.93;97791.94;4986850;28;98491;-72
2020/12/28 05:16:44;;;;;;;0.40;0.40;;;4.10;96.10;;;8.22;77.56;97790.06;4995181;28;97743;-72
2020/12/28 05:19:15;;;;;;;0.30;0.30;;;4.10;96.10;;;8.21;77.45;97796.53;4993022;28;96766;-72
2020/12/28 05:21:44;;;;;;;0.82;0.82;;;4.10;96.10;;;8.25;77.78;97797.34;4995479;28;96850;-72
2020/12/28 05:24:14;;;;;;;2.42;1.33;;;4.10;96.10;;;8.29;77.80;97800.09;4996544;28;100323;-72
2020/12/28 05:26:44;;;;;;;2.20;1.45;;;4.10;96.20;;;8.21;77.65;97799.19;4985419;28;97612;-72
2020/12/28 05:29:17;;;;;;;0.80;0.80;;;4.10;96.20;;;8.19;77.44;97801.44;4986196;28;96766;-72
2020/12/28 05:31:46;;;;;;;0.40;0.40;;;4.10;96.20;;;8.20;77.65;97791.53;5001232;28;96788;-72
2020/12/28 05:34:17;;;;;;;1.77;1.20;;;4.10;96.20;;;8.15;77.51;97787.25;5001568;28;96845;-72
2020/12/28 05:36:52;;;;;;;1.35;1.23;;;4.10;96.20;;;8.17;77.74;97790.38;4986815;28;97628;-72
2020/12/28 05:39:24;;;;;;;0.68;0.68;;;4.10;96.20;;;8.10;77.98;97787.53;4983416;28;96687;-72
2020/12/28 05:42:06;;;;;;;1.23;1.20;;;4.10;96.20;;;8.10;77.53;97789.47;4995782;28;96750;-72
2020/12/28 05:44:36;;;;;;;2.70;1.23;;;4.10;96.20;;;8.09;77.99;97791.34;4997716;28;98994;-72
2020/12/28 05:47:09;;;;;;;0.68;0.68;;;4.10;96.20;;;8.09;77.83;97796.66;5000654;28;97876;-72
2020/12/28 05:49:39;;;;;;;;;;;4.00;96.20;;;8.07;77.81;97798.16;4986012;28;97488;-72
2020/12/28 05:52:11;;;;;;;2.38;0.93;;;4.10;96.20;;;8.06;77.65;97800.06;5001604;28;96745;-72
2020/12/28 05:54:41;;;;;;;0.98;0.93;;;4.10;96.20;;;8.09;77.76;97807.34;5002524;28;96896;-72
2020/12/28 05:57:10;;;;;;;0.98;0.98;;;4.00;96.20;;;8.12;78.26;97806.66;4993813;28;96919;-72
2020/12/28 05:59:39;;;;;;;0.55;0.55;;;4.00;96.20;;;8.11;77.78;97817.66;4980307;28;96859;-72
2020/12/28 06:02:09;;;;;;;0.70;0.60;;;4.00;96.20;;;8.02;78.36;97815.22;4986068;28;96832;-74
2020/12/28 06:04:39;;;;;;;4.75;1.45;;;4.00;96.20;;;8.15;77.45;97811.25;5014153;28;99193;-72
2020/12/28 06:07:06;;;;;;;1.45;0.93;;;4.00;96.20;;;8.12;77.73;97801.31;4996987;28;97249;-72
2020/12/28 06:09:35;;;;;;;1.23;1.13;;;4.00;96.20;;;8.09;77.69;97804.66;4995102;28;96917;-73
2020/12/28 06:12:07;;;;;;;3.42;1.48;;;4.00;96.20;;;8.10;77.46;97802.78;4978059;28;96826;-74
2020/12/28 06:14:37;;;;;;;0.40;0.40;;;4.00;96.20;;;8.07;77.40;97801.59;5002101;28;98620;-72
2020/12/28 06:17:09;;;;;;;0.73;0.45;;;4.00;96.20;;;8.13;77.22;97805.53;4985679;28;96733;-74
2020/12/28 06:19:38;;;;;;;1.02;0.70;;;4.00;96.20;;;8.12;77.71;97806.66;4986598;28;96763;-74
2020/12/28 06:22:20;;;;;;;1.23;0.95;;;4.00;96.20;;;8.03;77.30;97795.44;4988505;28;96740;-73
2020/12/28 06:25:04;;;;;;;0.43;0.43;;;4.00;96.20;;;8.00;77.41;97798.06;4993372;28;96926;-73
2020/12/28 06:27:39;;;;;;;0.80;0.80;;;4.00;96.20;;;7.89;77.59;97795.19;4977809;28;97261;-73
2020/12/28 06:30:14;;;;;;;1.13;1.05;;;3.90;96.10;;;7.80;77.47;97804.56;4994047;28;96890;-73
2020/12/28 06:32:45;;;;;;;2.75;1.20;;;3.80;96.00;;;7.68;76.59;97805.47;4997623;28;96786;-73
2020/12/28 06:35:15;;;;;;;1.20;1.10;;;3.80;96.00;;;7.60;76.94;97802.28;5001257;28;98276;-73
2020/12/28 06:37:48;;;;;;;1.55;0.65;;;3.70;95.90;;;7.48;75.91;97818.41;4992607;28;98384;-73
2020/12/28 06:40:30;;;;;;;1.50;1.40;;;3.60;95.80;;;7.37;76.54;97812.09;4989834;28;97319;-73
2020/12/28 06:43:12;;;;;;;13.48;2.33;;;3.60;95.70;;;7.28;76.77;97808.88;4990678;28;96721;-73
2020/12/28 06:45:44;;;;;;;;;;;3.50;95.50;;;7.15;75.75;97815.47;4988357;28;97196;-73
2020/12/28 06:48:17;;;;;;;4.57;1.40;;;3.40;95.40;;;7.07;76.09;97808.44;4995891;28;97654;-73
2020/12/28 06:50:49;;;;;;;1.60;1.13;;;3.30;95.30;;;7.00;76.21;97805.66;4994727;28;96742;-73
2020/12/28 06:53:21;;;;;;;1.40;1.27;;;3.20;95.30;;;6.96;76.32;97813.53;5000019;28;96763;-73
2020/12/28 06:55:49;;;;;;;0.40;0.40;;;3.10;95.20;;;6.84;76.50;97820.88;4981983;28;97801;-73
2020/12/28 06:58:21;;;;;;;0.82;0.82;;;3.10;95.20;;;6.81;76.12;97818.91;4985789;28;96669;-73
2020/12/28 07:01:04;;;;;;;0.50;0.50;;;3.00;95.10;;;6.81;75.99;97826.91;4998259;28;96801;-73
2020/12/28 07:03:32;;;;;;;2.40;1.47;;;2.90;95.20;;;6.80;76.06;97825.34;4997266;28;98100;-73
2020/12/28 07:06:04;;;;;;;0.80;0.68;;;2.90;95.20;;;6.77;76.42;97826.84;4993987;28;99212;-73
2020/12/28 07:08:33;;;;;;;0.88;0.88;;;2.80;95.20;;;6.66;76.27;97830.38;4984300;28;98904;-73
2020/12/28 07:11:04;;;;;;;0.30;0.30;;;2.80;95.20;;;6.64;76.60;97829.94;5005098;28;96839;-73
2020/12/28 07:13:36;;;;;;;0.30;0.30;;;2.80;95.30;;;6.59;76.37;97825.66;4993068;28;96756;-73
2020/12/28 07:16:07;;;;;;;24.55;0.85;;;2.70;95.30;;;6.60;76.76;97823.75;4995792;28;97800;-73
2020/12/28 07:18:38;;;;;;;0.47;0.47;;;2.70;95.30;;;6.64;76.52;97825.38;4999063;28;97570;-73
2020/12/28 07:21:07;;;;;;;1.88;0.93;;;2.60;95.30;;;6.68;76.14;97833.47;4997509;28;97419;-73
2020/12/28 07:23:37;;;;;;;0.95;0.70;;;2.60;95.30;;;6.51;76.25;97829.28;4999457;28;96915;-73
2020/12/28 07:26:09;;;;;;;0.52;0.52;;;2.60;95.30;;;6.47;76.16;97833.75;4996498;28;97953;-73
2020/12/28 07:28:45;;;;;;;3.05;1.25;;;2.50;95.20;;;6.41;76.22;97844.97;4998715;28;96649;-73
2020/12/28 07:31:22;;;;;;;0.90;0.65;;;2.50;95.20;;;6.43;75.49;97845.41;4989589;28;96946;-73
2020/12/28 07:33:52;;;;;;;3.08;1.77;;;2.50;95.20;;;6.27;76.40;97855.25;5003247;28;97376;-73
2020/12/28 07:36:24;;;;;;;1.73;1.52;;;2.40;95.20;;;6.30;75.99;97854.56;5000319;28;98201;-73
2020/12/28 07:38:53;;;;;;;2.42;1.52;;;2.40;95.20;;;6.37;75.49;97858.19;4984251;28;98031;-73
2020/12/28 07:41:23;;;;;;;3.60;1.15;;;2.40;95.20;;;6.27;76.48;97864.03;5005458;28;96840;-73
2020/12/28 07:43:55;;;;;;;1.13;1.13;;;2.30;95.20;;;6.18;76.38;97862.66;4971987;28;97434;-73
2020/12/28 07:46:57;;;;;;;1.83;1.65;;;2.30;95.20;;;6.14;76.63;97869.75;4989540;28;98956;-73
2020/12/28 07:49:30;;;;;;;2.47;1.83;;;2.30;95.20;;;6.08;76.56;97878.31;4997324;28;97548;-73
2020/12/28 07:52:16;;;;;;;2.70;1.17;;;2.20;95.20;;;6.11;77.00;97883.72;4995794;28;97371;-73
2020/12/28 07:54:56;;;;;;;1.83;1.73;;;2.20;95.30;;;6.10;76.84;97890.16;4992257;28;96792;-73
2020/12/28 07:57:39;;;;;;;2.75;1.95;;;2.20;95.30;;;6.12;76.85;97895.13;4986111;28;99368;-73
2020/12/28 08:00:16;;;;;;;0.77;0.77;;;2.20;95.30;;;6.20;77.04;97893.09;4987313;28;97844;-73
2020/12/28 08:03:21;;;;;;;2.08;1.20;;;2.20;95.40;;;6.32;78.00;97889.59;4992617;28;96848;-73
2020/12/28 08:05:53;;;;;;;1.73;0.90;;;2.30;95.50;;;6.36;78.09;97896.53;4997279;28;96825;-73
2020/12/28 08:08:23;;;;;;;;;;;2.40;95.60;;;6.45;77.75;97885.72;5005054;28;96911;-73
2020/12/28 08:10:55;;;;;;;0.75;0.75;;;2.40;95.70;;;6.53;78.01;97890.09;5000297;28;96647;-73
2020/12/28 08:13:29;;;;;;;1.60;1.50;;;2.50;95.70;;;6.62;77.88;97890.72;5002397;28;96894;-73
2020/12/28 08:16:09;;;;;;;2.58;2.38;;;2.50;95.70;;;6.66;78.31;97896.88;4983382;28;97431;-73
2020/12/28 08:18:49;;;;;;;1.02;0.90;;;2.60;95.70;;;6.71;78.05;97902.69;4979739;28;97690;-73
2020/12/28 08:21:18;;;;;;;2.72;1.70;;;2.60;95.70;;;6.79;78.61;97914.28;4989734;28;97111;-73
2020/12/28 08:23:55;;;;;;;0.60;0.60;;;2.70;95.80;;;6.96;78.15;97919.25;4988577;28;97497;-73
2020/12/28 08:26:25;;;;;;;0.93;0.73;;;2.70;95.80;;;7.00;78.04;97922.75;4982410;28;96846;-73
2020/12/28 08:28:57;;;;;;;2.95;1.08;;;2.80;95.80;;;7.12;78.07;97928.75;4991489;28;97733;-73
2020/12/28 08:31:27;;;;;;;1.33;1.23;;;2.80;95.80;;;7.22;77.83;97932.78;4983649;28;97649;-73
2020/12/28 08:34:03;;;;;;;1.27;1.05;;;2.90;95.90;;;7.21;78.36;97932.00;4991799;28;97416;-73
2020/12/28 08:36:33;;;;;;;1.48;1.10;;;3.00;95.80;;;7.26;77.40;97929.06;4974727;28;96666;-73
2020/12/28 08:39:13;;;;;;;1.42;0.73;;;3.00;95.80;;;7.34;77.60;97925.41;4990730;28;97768;-74
2020/12/28 08:42:02;;;;;;;10.88;3.53;;;3.10;95.80;;;7.46;77.75;97921.84;4996682;28;98937;-73
2020/12/28 08:44:35;;;;;;;1.45;1.38;;;3.10;95.80;;;7.49;77.19;97921.16;4992213;28;97135;-73
2020/12/28 08:47:16;;;;;;;0.83;0.83;;;3.20;95.90;;;7.46;77.26;97927.19;4976636;28;96868;-74
2020/12/28 08:49:49;;;;;;;1.95;1.48;;;3.20;96.10;;;7.50;78.15;97928.81;4994386;28;97246;-74
2020/12/28 08:52:19;;;;;;;3.38;3.10;;;3.30;95.90;;;7.57;77.81;97930.88;4998716;28;98623;-74
2020/12/28 08:54:56;;;;;;;4.80;2.72;;;3.30;95.90;;;7.65;77.95;97935.22;4997477;28;97493;-74
2020/12/28 08:57:27;;;;;;;1.90;1.60;;;3.40;95.90;;;7.71;78.04;97932.69;4990632;28;96831;-74
2020/12/28 08:59:59;;;;;;;4.15;1.77;;;3.40;95.90;;;7.76;77.45;97929.72;4985245;28;98833;-74
2020/12/28 09:02:31;;;;;;;2.30;2.03;;;3.50;95.90;;;7.85;77.72;97929.53;4999653;28;97669;-73
2020/12/28 09:04:59;;;;;;;3.47;2.88;;;3.60;95.90;;;7.91;77.66;97926.22;4964114;28;98125;-74
2020/12/28 09:07:31;;;;;;;3.45;2.50;;;3.60;95.90;;;8.05;77.18;97929.16;4989711;28;97086;-74
2020/12/28 09:09:59;;;;;;;0.77;0.77;;;3.70;95.90;;;8.09;76.95;97932.66;4993456;28;97540;-74
2020/12/28 09:12:32;;;;;;;4.80;2.20;;;3.70;95.90;;;8.07;77.35;97944.81;4998505;28;97625;-74
2020/12/28 09:15:00;;;;;;;0.88;0.85;;;3.80;95.90;;;8.10;77.05;97949.44;5001890;28;96739;-74
2020/12/28 09:17:32;;;;;;;2.10;1.55;;;3.80;95.90;;;8.18;77.69;97951.91;4999284;28;96760;-74
2020/12/28 09:20:00;;;;;;;1.20;1.17;;;3.80;95.90;;;8.20;77.37;97956.88;4982744;28;99008;-74
2020/12/28 09:22:31;;;;;;;1.35;0.90;;;3.90;95.90;;;8.25;77.35;97946.72;4988770;28;97601;-74
2020/12/28 09:24:59;;;;;;;4.80;1.67;;;3.90;95.90;;;8.22;77.44;97947.41;5000072;28;96993;-74
2020/12/28 09:27:31;;;;;;;1.30;1.20;;;4.00;95.90;;;8.29;77.93;97944.88;4996607;28;96632;-74
2020/12/28 09:30:00;;;;;;;1.95;1.15;;;4.00;95.90;;;8.38;77.91;97937.41;4991488;28;96961;-74
2020/12/28 09:32:35;;;;;;;1.40;0.90;;;4.10;95.90;;;8.53;76.99;97935.75;4998918;28;97807;-74
2020/12/28 09:35:04;;;;;;;1.02;0.98;;;4.20;96.10;;;8.73;77.09;97938.03;4996736;28;96828;-74
2020/12/28 09:37:32;;;;;;;1.27;0.93;;;4.20;95.90;;;8.85;76.56;97937.84;4980515;28;97294;-74
2020/12/28 09:40:00;;;;;;;2.55;1.60;;;4.30;95.90;;;9.03;75.81;97941.56;4995929;28;98620;-74
2020/12/28 09:42:31;;;;;;;1.08;1.05;;;4.40;95.80;;;9.21;75.38;97934.56;4991668;28;96787;-74
2020/12/28 09:44:59;;;;;;;6.15;1.80;;;4.50;95.80;;;9.37;75.46;97937.84;4992611;28;97253;-74
2020/12/28 09:47:28;;;;;;;1.90;1.50;;;4.60;95.80;;;9.42;75.25;97937.53;4984564;28;96739;-74
2020/12/28 09:49:57;;;;;;;1.38;1.23;;;4.80;95.70;;;9.27;75.21;97940.38;4990106;28;99219;-74
2020/12/28 09:52:25;;;;;;;1.67;1.45;;;4.80;95.60;;;9.10;75.86;97939.00;4987782;28;97669;-74
2020/12/28 09:54:54;;;;;;;1.35;0.77;;;4.80;95.60;;;9.04;75.74;97937.75;4983784;28;97445;-74
2020/12/28 09:57:22;;;;;;;2.28;1.77;;;4.80;95.60;;;8.99;75.50;97935.38;4991282;28;96700;-74
2020/12/28 09:59:50;;;;;;;1.38;1.02;;;4.80;95.50;;;8.93;75.27;97944.06;4984956;28;96921;-74
2020/12/28 10:02:18;;;;;;;1.85;1.70;;;4.70;95.50;;;8.91;75.80;97941.75;4987627;28;97330;-74
2020/12/28 10:04:47;;;;;;;0.70;0.70;;;4.70;95.50;;;8.90;75.52;97942.88;4990315;28;97301;-74
2020/12/28 10:07:16;;;;;;;9.73;2.83;;;4.70;95.60;;;8.99;75.62;97951.41;4998246;28;97216;-74
2020/12/28 10:09:44;;;;;;;1.35;1.25;;;4.70;95.60;;;9.25;75.30;97935.38;4983832;28;97683;-72
2020/12/28 10:12:12;;;;;;;1.05;1.00;;;4.70;95.60;;;9.62;74.90;97944.31;4990337;28;97587;-74
2020/12/28 10:14:41;;;;;;;2.22;0.47;;;4.90;95.70;;;9.93;74.73;97936.66;4989694;28;97242;-74
2020/12/28 10:17:10;;;;;;;1.60;1.50;;;5.10;95.60;;;10.24;73.87;97935.53;4988210;28;96802;-72
2020/12/28 10:19:38;;;;;;;0.77;0.77;;;5.30;95.60;;;10.48;73.35;97935.75;4989308;28;97019;-72
2020/12/28 10:22:07;;;;;;;3.28;2.92;;;5.40;95.50;;;10.50;73.56;97941.50;4993315;28;97789;-72
2020/12/28 10:24:36;;;;;;;5.80;1.60;;;5.60;95.50;;;10.61;73.75;97942.38;4994012;28;97080;-72
2020/12/28 10:27:05;;;;;;;1.75;1.50;;;5.70;95.40;;;10.79;74.06;97929.91;4995525;28;96825;-72
2020/12/28 10:29:34;;;;;;;2.58;1.30;;;5.90;95.40;;;10.84;73.87;97923.47;5001325;28;98425;-72
2020/12/28 10:32:04;;;;;;;1.42;1.33;;;6.10;95.30;;;10.97;73.68;97925.47;4992464;28;98610;-72
2020/12/28 10:34:32;;;;;;;1.50;1.40;;;6.20;95.10;;;11.09;74.16;97928.59;5002593;28;97300;-72
2020/12/28 10:37:03;;;;;;;1.13;1.05;;;6.30;95.00;;;11.07;73.89;97912.13;4998555;28;96702;-72
2020/12/28 10:39:32;;;;;;;1.92;1.02;;;6.40;94.90;;;10.86;74.11;97910.47;4999082;28;97385;-73
2020/12/28 10:42:04;;;;;;;1.55;1.23;;;6.40;94.80;;;10.62;74.61;97916.38;4985457;28;97636;-74
2020/12/28 10:44:34;;;;;;;0.90;0.83;;;6.30;94.70;;;10.52;75.18;97907.09;4984475;28;97460;-73
2020/12/28 10:47:04;;;;;;;6.28;2.42;;;6.30;94.70;;;10.39;75.48;97913.09;5003679;28;96766;-78
2020/12/28 10:49:32;;;;;;;1.27;1.17;;;6.20;94.80;;;10.44;75.40;97905.53;4987011;28;98936;-77
2020/12/28 10:52:00;;;;;;;2.60;1.75;;;6.10;94.80;;;10.82;74.91;97912.34;4985705;28;98182;-77
2020/12/28 10:54:31;;;;;;;1.15;0.75;;;6.20;95.00;;;11.07;74.70;97906.78;5006140;28;96946;-77
2020/12/28 10:56:59;;;;;;;0.63;0.63;;;6.40;94.90;;;11.09;74.07;97911.78;4998028;28;96625;-77
2020/12/28 10:59:32;;;;;;;1.23;0.77;;;6.40;94.90;;;10.89;74.66;97916.63;4977244;28;98120;-77
2020/12/28 11:02:00;;;;;;;7.00;2.10;;;6.50;94.80;;;10.83;75.16;97901.25;4991800;28;98131;-77